Weather at St Pierre d'Oléron Airfield

Public forecast

Using degrees Celsius for public forecast. Weather courtesy of forecast.io.

Closest aviation weather report (METAR) to St Pierre d'Oléron Airfield

Closest report is La Rochelle-Île de Ré Airport, 14.1 nm (26.2 km) NNE. Retrieved 2021/08/04 06:30 UTC (26 minutes ago):

LFBH 040630Z AUTO 25009KT 9999 FEW015 SCT024 OVC043 19/17 Q1010 TEMPO 3000 SHRA BKN013TCU

Closest aviation forecast (TAF) to St Pierre d'Oléron Airfield

Closest forecast is La Rochelle-Île de Ré Airport, 14.1 nm (26.2 km) NNE. Retrieved 2021/08/04 06:21 UTC (35 minutes ago):

TAF TAF LFBH 040500Z 0406/0506 24012KT 9999 SCT015 BKN030 PROB30 TEMPO 0406/0407 BKN008 TEMPO 0406/0411 3000 SHRA BKN013TCU BECMG 0411/0413 30015KT PROB30 TEMPO 0411/0418 -SHRA SCT015TCU BKN030 TEMPO 0415/0422 30015G25KT BECMG 0500/0502 24010KT